This is the latest recevied weather packets stored in our database for station/object KO5MO-4. If no packets are shown the sender has not sent any weather packets the latest 10 day(s).
| Time | Temp. | Humidity | Pressure | Rain* | Wind** | Luminosity | Snow |
|---|---|---|---|---|---|---|---|
| 1777365982 | 12.78° C | 41% | 1011.4 hPa | 0 mm | - | - | - |
| 1777365682 | 13.33° C | 41% | 1011.4 hPa | 0 mm | - | - | - |
| 1777364482 | 13.89° C | 39% | 1011.4 hPa | 0 mm | - | - | - |
| 1777364182 | 13.89° C | 39% | 1011.5 hPa | 0 mm | - | - | - |
| 1777363582 | 13.89° C | 39% | 1011.5 hPa | 0 mm | - | - | - |
| 1777362682 | 13.89° C | 38% | 1011.6 hPa | 0 mm | - | - | - |
| 1777362382 | 14.44° C | 38% | 1011.6 hPa | 0 mm | - | - | - |
| 1777362082 | 14.44° C | 37% | 1011.6 hPa | 0 mm | - | - | - |
| 1777361782 | 15° C | 36% | 1011.6 hPa | 0 mm | - | - | - |
| 1777361182 | 15° C | 36% | 1011.5 hPa | 0 mm | - | - | - |
| 1777360582 | 15° C | 36% | 1011.5 hPa | 0 mm | - | - | - |
| 1777359682 | 16.11° C | 35% | 1011.3 hPa | 0 mm | - | - | - |
| 1777358182 | 17.22° C | 31% | 1011.1 hPa | 0 mm | - | - | - |
| 1777357582 | 17.78° C | 29% | 1011.1 hPa | 0 mm | - | - | - |
| 1777352782 | 19.44° C | 26% | 1010.7 hPa | 0 mm | - | - | - |
| 1777351582 | 20° C | 25% | 1010.6 hPa | 0 mm | - | - | - |
| 1777350382 | 20.56° C | 24% | 1010.4 hPa | 0 mm | - | - | - |
| 1777347382 | 21.67° C | 22% | 1009.5 hPa | 0 mm | - | - | - |
| 1777346782 | 22.22° C | 22% | 1009.4 hPa | 0 mm | - | - | - |
| 1777346182 | 22.22° C | 21% | 1009.2 hPa | 0 mm | - | - | - |
| 1777345882 | 22.78° C | 21% | 1009.1 hPa | 0 mm | - | - | - |
| 1777345582 | 22.78° C | 21% | 1009 hPa | 0 mm | - | - | - |
| 1777345282 | 22.78° C | 21% | 1009 hPa | 0 mm | - | - | - |
| 1777341982 | 23.89° C | 20% | 1008.1 hPa | 0 mm | - | - | - |
| 1777341382 | 24.44° C | 19% | 1008.1 hPa | 0 mm | - | - | - |
* Rain latest hour (hover to see other rain measurements)
** Current wind speed in m/s (hover to see current wind gust speed)